createdAt,value
2017-10-11T00:00:32.144Z,101349.73
2017-10-11T00:02:34.592Z,101345.14
2017-10-11T00:04:37.025Z,101351.58
2017-10-11T00:06:39.480Z,101347.11
2017-10-11T00:08:41.998Z,101339.85
2017-10-11T00:10:44.432Z,101347.03
2017-10-11T00:12:46.897Z,101343.98
2017-10-11T00:14:49.332Z,101344.91
2017-10-11T00:16:51.778Z,101349.05
2017-10-11T00:18:54.242Z,101348.55
2017-10-11T00:20:56.719Z,101345.92
2017-10-11T00:22:59.191Z,101346.43
2017-10-11T00:25:01.656Z,101357.23
2017-10-11T00:27:04.093Z,101350.06
2017-10-11T00:29:06.605Z,101351.41
2017-10-11T00:31:09.164Z,101345.62
2017-10-11T00:33:11.641Z,101341.14
2017-10-11T00:35:14.085Z,101345.70
2017-10-11T00:37:16.556Z,101343.00
2017-10-11T00:39:19.052Z,101344.86
2017-10-11T00:41:21.500Z,101343.50
2017-10-11T00:43:23.992Z,101343.92
2017-10-11T00:45:26.456Z,101347.13
2017-10-11T00:47:28.890Z,101342.66
2017-10-11T00:49:31.400Z,101340.16
2017-10-11T00:51:33.850Z,101340.55
2017-10-11T00:53:36.336Z,101338.38
2017-10-11T00:55:38.796Z,101341.50
2017-10-11T00:57:41.389Z,101331.20
2017-10-11T00:59:43.837Z,101326.73
2017-10-11T01:01:46.325Z,101330.78
2017-10-11T01:03:48.763Z,101327.16
2017-10-11T01:05:51.264Z,101326.31
2017-10-11T01:07:53.840Z,101332.13
2017-10-11T01:09:56.304Z,101330.78
2017-10-11T01:11:58.770Z,101330.87
2017-10-11T01:14:01.236Z,101330.87
2017-10-11T01:16:03.683Z,101327.23
2017-10-11T01:18:06.114Z,101326.39
2017-10-11T01:20:08.584Z,101328.25
2017-10-11T01:22:11.021Z,101331.38
2017-10-11T01:24:13.465Z,101328.67
2017-10-11T01:26:15.934Z,101320.66
2017-10-11T01:28:18.381Z,101320.14
2017-10-11T01:30:20.824Z,101318.80
2017-10-11T01:32:23.289Z,101321.92
2017-10-11T01:34:25.725Z,101322.00
2017-10-11T01:36:28.164Z,101319.41
2017-10-11T01:38:30.620Z,101318.48
2017-10-11T01:40:33.074Z,101325.24
2017-10-11T01:42:35.518Z,101327.09
2017-10-11T01:44:38.002Z,101323.97
2017-10-11T01:46:40.468Z,101327.52
2017-10-11T01:48:42.916Z,101325.33
2017-10-11T01:50:45.380Z,101320.00
2017-10-11T01:52:47.821Z,101317.73
2017-10-11T01:54:50.276Z,101318.23
2017-10-11T01:56:52.736Z,101323.63
2017-10-11T01:58:55.292Z,101322.28
2017-10-11T02:00:57.741Z,101318.23
2017-10-11T02:03:00.209Z,101313.76
2017-10-11T02:05:02.657Z,101318.73
2017-10-11T02:07:05.091Z,101310.21
2017-10-11T02:09:07.553Z,101316.03
2017-10-11T02:11:10.016Z,101315.19
2017-10-11T02:13:12.465Z,101318.81
2017-10-11T02:15:14.943Z,101320.59
2017-10-11T02:17:17.383Z,101316.12
2017-10-11T02:19:19.884Z,101314.77
2017-10-11T02:21:22.343Z,101315.19
2017-10-11T02:23:24.783Z,101322.06
2017-10-11T02:25:27.225Z,101324.76
2017-10-11T02:27:29.686Z,101317.16
2017-10-11T02:29:32.136Z,101315.81
2017-10-11T02:31:34.570Z,101315.39
2017-10-11T02:33:37.030Z,101322.64
2017-10-11T02:35:39.465Z,101319.52
2017-10-11T02:37:41.903Z,101329.91
2017-10-11T02:39:44.358Z,101320.95
2017-10-11T02:41:46.808Z,101319.61
2017-10-11T02:43:49.247Z,101321.37
2017-10-11T02:45:51.793Z,101319.10
2017-10-11T02:47:54.231Z,101319.61
2017-10-11T02:49:56.673Z,101325.63
2017-10-11T02:51:59.136Z,101332.27
2017-10-11T02:54:01.579Z,101326.98
2017-10-11T02:56:04.026Z,101320.53
2017-10-11T02:58:06.485Z,101317.02
2017-10-11T03:00:09.054Z,101317.52
2017-10-11T03:02:11.484Z,101321.45
2017-10-11T03:04:13.944Z,101309.42
2017-10-11T03:06:16.392Z,101317.95
2017-10-11T03:08:18.837Z,101317.61
2017-10-11T03:10:21.334Z,101318.03
2017-10-11T03:12:23.781Z,101322.58
2017-10-11T03:14:26.238Z,101316.34
2017-10-11T03:16:28.793Z,101311.78
2017-10-11T03:18:31.238Z,101313.72
2017-10-11T03:20:33.708Z,101320.81
2017-10-11T03:22:36.251Z,101319.04
2017-10-11T03:24:38.695Z,101314.65
2017-10-11T03:26:41.134Z,101319.23
2017-10-11T03:28:43.599Z,101318.31
2017-10-11T03:30:46.957Z,101323.17
2017-10-11T03:32:49.437Z,101322.75
2017-10-11T03:34:51.893Z,101321.94
2017-10-11T03:36:54.346Z,101313.30
2017-10-11T03:38:56.797Z,101315.19
2017-10-11T03:40:59.261Z,101313.84
2017-10-11T03:43:01.692Z,101312.91
2017-10-11T03:45:04.129Z,101311.56
2017-10-11T03:47:06.609Z,101309.25
2017-10-11T03:49:09.047Z,101308.94
2017-10-11T03:51:11.485Z,101303.54
2017-10-11T03:53:13.951Z,101303.54
2017-10-11T03:55:16.387Z,101302.27
2017-10-11T03:57:18.832Z,101307.67
2017-10-11T03:59:21.302Z,101304.55
2017-10-11T04:01:23.926Z,101303.20
2017-10-11T04:03:26.378Z,101300.50
2017-10-11T04:05:28.855Z,101297.80
2017-10-11T04:07:31.288Z,101291.98
2017-10-11T04:09:33.732Z,101291.98
2017-10-11T04:11:36.253Z,101296.53
2017-10-11T04:13:38.685Z,101286.23
2017-10-11T04:15:41.129Z,101285.00
2017-10-11T04:17:43.596Z,101287.50
2017-10-11T04:19:46.133Z,101283.96
2017-10-11T04:21:48.589Z,101285.73
2017-10-11T04:23:51.093Z,101287.59
2017-10-11T04:25:53.542Z,101290.71
2017-10-11T04:27:55.979Z,101277.63
2017-10-11T04:29:58.450Z,101281.37
2017-10-11T04:32:00.896Z,101279.09
2017-10-11T04:34:03.330Z,101273.78
2017-10-11T04:36:05.793Z,101271.50
2017-10-11T04:38:08.272Z,101278.14
2017-10-11T04:40:10.712Z,101276.40
2017-10-11T04:42:13.177Z,101274.70
2017-10-11T04:44:15.616Z,101264.84
2017-10-11T04:46:18.244Z,101272.43
2017-10-11T04:48:20.705Z,101277.83
2017-10-11T04:50:23.155Z,101271.16
2017-10-11T04:52:25.589Z,101273.86
2017-10-11T04:54:28.057Z,101272.09
2017-10-11T04:56:30.512Z,101281.12
2017-10-11T04:58:32.972Z,101276.64
2017-10-11T05:00:35.571Z,101279.77
2017-10-11T05:02:38.231Z,101281.12
2017-10-11T05:04:40.679Z,101286.09
2017-10-11T05:06:43.146Z,101282.55
2017-10-11T05:08:45.630Z,101286.18
2017-10-11T05:10:48.096Z,101288.38
2017-10-11T05:12:50.561Z,101289.84
2017-10-11T05:14:53.002Z,101287.14
2017-10-11T05:16:55.509Z,101285.79
2017-10-11T05:18:58.008Z,101287.53
2017-10-11T05:21:00.447Z,101286.60
2017-10-11T05:23:02.888Z,101287.14
2017-10-11T05:25:05.355Z,101283.39
2017-10-11T05:27:07.868Z,101284.44
2017-10-11T05:29:10.319Z,101289.42
2017-10-11T05:31:12.777Z,101285.36
2017-10-11T05:33:15.281Z,101292.12
2017-10-11T05:35:17.740Z,101296.67
2017-10-11T05:37:20.205Z,101293.97
2017-10-11T05:39:22.645Z,101295.74
2017-10-11T05:41:25.114Z,101293.55
2017-10-11T05:43:27.589Z,101293.55
2017-10-11T05:45:30.033Z,101290.00
2017-10-11T05:47:32.473Z,101290.00
2017-10-11T05:49:34.946Z,101293.05
2017-10-11T05:51:37.401Z,101293.55
2017-10-11T05:53:39.876Z,101293.97
2017-10-11T05:55:42.441Z,101293.97
2017-10-11T05:57:44.889Z,101296.67
2017-10-11T05:59:47.362Z,101293.63
2017-10-11T06:01:49.818Z,101301.65
2017-10-11T06:03:52.300Z,101305.19
2017-10-11T06:05:54.748Z,101298.44
2017-10-11T06:07:57.208Z,101302.91
2017-10-11T06:09:59.716Z,101297.59
2017-10-11T06:12:02.214Z,101298.87
2017-10-11T06:14:04.773Z,101291.27
2017-10-11T06:16:07.309Z,101294.81
2017-10-11T06:18:09.741Z,101298.33
2017-10-11T06:20:12.214Z,101303.73
2017-10-11T06:22:14.663Z,101303.73
2017-10-11T06:24:17.102Z,101304.06
2017-10-11T06:26:19.673Z,101303.91
2017-10-11T06:28:22.172Z,101304.21
2017-10-11T06:30:24.617Z,101311.30
2017-10-11T06:32:27.086Z,101310.80
2017-10-11T06:34:29.589Z,101312.48
2017-10-11T06:36:32.019Z,101312.29
2017-10-11T06:38:34.497Z,101313.13
2017-10-11T06:40:36.954Z,101309.42
2017-10-11T06:42:39.479Z,101319.10
2017-10-11T06:44:41.958Z,101324.84
2017-10-11T06:46:44.417Z,101330.97
2017-10-11T06:48:46.937Z,101324.56
2017-10-11T06:50:49.414Z,101326.67
2017-10-11T06:52:51.973Z,101323.35
2017-10-11T06:54:54.465Z,101325.13
2017-10-11T06:56:57.016Z,101326.23
2017-10-11T06:58:59.463Z,101332.44
2017-10-11T07:01:01.908Z,101340.04
2017-10-11T07:03:04.645Z,101338.52
2017-10-11T07:05:07.221Z,101335.20
2017-10-11T07:07:09.711Z,101336.47
2017-10-11T07:09:12.178Z,101335.88
2017-10-11T07:11:14.617Z,101335.26
2017-10-11T07:13:17.050Z,101337.38
2017-10-11T07:15:19.505Z,101346.66
2017-10-11T07:17:21.957Z,101341.14
2017-10-11T07:19:24.403Z,101341.06
2017-10-11T07:21:26.864Z,101341.82
2017-10-11T07:23:29.318Z,101335.80
2017-10-11T07:25:31.754Z,101342.89
2017-10-11T07:27:34.267Z,101348.21
2017-10-11T07:29:36.743Z,101347.59
2017-10-11T07:31:39.253Z,101346.16
2017-10-11T07:33:41.723Z,101341.52
2017-10-11T07:35:44.196Z,101353.47
2017-10-11T07:37:46.664Z,101349.26
2017-10-11T07:39:49.130Z,101348.13
2017-10-11T07:41:51.568Z,101355.45
2017-10-11T07:43:54.010Z,101343.55
2017-10-11T07:45:56.496Z,101352.72
2017-10-11T07:47:58.931Z,101346.64
2017-10-11T07:50:01.375Z,101358.86
2017-10-11T07:52:03.838Z,101349.62
2017-10-11T07:54:06.284Z,101357.98
2017-10-11T07:56:08.782Z,101359.92
2017-10-11T07:58:11.238Z,101367.92
2017-10-11T08:00:14.618Z,101359.22
2017-10-11T08:02:17.049Z,101359.98
2017-10-11T08:04:19.599Z,101355.73
2017-10-11T08:06:22.237Z,101362.74
2017-10-11T08:08:24.716Z,101363.05
2017-10-11T08:10:27.175Z,101366.00
2017-10-11T08:12:29.617Z,101362.28
2017-10-11T08:14:32.048Z,101360.31
2017-10-11T08:16:34.504Z,101364.20
2017-10-11T08:18:36.989Z,101361.80
2017-10-11T08:20:39.461Z,101362.14
2017-10-11T08:22:42.037Z,101363.32
2017-10-11T08:24:44.500Z,101372.58
2017-10-11T08:26:46.932Z,101369.37
2017-10-11T08:28:49.384Z,101368.78
2017-10-11T08:30:51.828Z,101363.17
2017-10-11T08:32:54.265Z,101367.14
2017-10-11T08:34:56.742Z,101364.78
2017-10-11T08:36:59.188Z,101363.31
2017-10-11T08:39:01.689Z,101365.93
2017-10-11T08:41:04.146Z,101362.22
2017-10-11T08:43:06.572Z,101370.66
2017-10-11T08:45:09.049Z,101363.91
2017-10-11T08:47:12.481Z,101363.70
2017-10-11T08:49:14.917Z,101363.70
2017-10-11T08:51:17.392Z,101368.09
2017-10-11T08:53:19.861Z,101362.99
2017-10-11T08:55:22.369Z,101363.75
2017-10-11T08:57:24.837Z,101354.20
2017-10-11T08:59:27.293Z,101363.58
2017-10-11T09:01:29.744Z,101364.73
2017-10-11T09:03:32.192Z,101369.97
2017-10-11T09:05:34.717Z,101369.46
2017-10-11T09:07:37.305Z,101372.98
2017-10-11T09:09:39.744Z,101373.73
2017-10-11T09:11:42.199Z,101376.87
2017-10-11T09:13:44.668Z,101374.50
2017-10-11T09:15:47.184Z,101374.80
2017-10-11T09:17:49.649Z,101371.59
2017-10-11T09:19:52.118Z,101373.37
2017-10-11T09:21:54.584Z,101371.51
2017-10-11T09:23:57.044Z,101371.00
2017-10-11T09:25:59.491Z,101369.95
2017-10-11T09:28:01.934Z,101364.38
2017-10-11T09:30:04.422Z,101363.78
2017-10-11T09:32:06.853Z,101367.72
2017-10-11T09:34:09.304Z,101369.07
2017-10-11T09:36:11.767Z,101365.36
2017-10-11T09:38:14.265Z,101363.49
2017-10-11T09:40:16.709Z,101366.11
2017-10-11T09:42:19.184Z,101368.19
2017-10-11T09:44:21.656Z,101370.47
2017-10-11T09:46:24.093Z,101366.25
2017-10-11T09:48:26.561Z,101370.30
2017-10-11T09:50:29.004Z,101359.91
2017-10-11T09:52:31.499Z,101362.52
2017-10-11T09:54:34.008Z,101368.86
2017-10-11T09:56:36.476Z,101361.59
2017-10-11T09:58:38.950Z,101363.34
2017-10-11T10:00:41.532Z,101363.25
2017-10-11T10:02:43.998Z,101375.34
2017-10-11T10:04:46.493Z,101365.36
2017-10-11T10:06:48.995Z,101366.20
2017-10-11T10:08:51.682Z,101367.05
2017-10-11T10:10:54.124Z,101365.28
2017-10-11T10:12:56.610Z,101364.34
2017-10-11T10:14:59.081Z,101358.94
2017-10-11T10:17:01.533Z,101356.63
2017-10-11T10:19:03.995Z,101362.80
2017-10-11T10:21:06.443Z,101361.02
2017-10-11T10:23:08.900Z,101360.42
2017-10-11T10:25:11.353Z,101358.65
2017-10-11T10:27:13.840Z,101367.19
2017-10-11T10:29:16.309Z,101360.84
2017-10-11T10:31:18.774Z,101361.15
2017-10-11T10:33:21.217Z,101365.20
2017-10-11T10:35:23.670Z,101359.29
2017-10-11T10:37:26.143Z,101359.29
2017-10-11T10:39:28.650Z,101356.08
2017-10-11T10:41:31.125Z,101356.92
2017-10-11T10:43:33.584Z,101361.48
2017-10-11T10:45:36.069Z,101358.70
2017-10-11T10:47:38.526Z,101355.06
2017-10-11T10:49:41.075Z,101362.33
2017-10-11T10:51:43.512Z,101358.61
2017-10-11T10:53:45.948Z,101361.70
2017-10-11T10:55:48.412Z,101356.30
2017-10-11T10:57:50.869Z,101363.48
2017-10-11T10:59:53.367Z,101351.73
2017-10-11T11:01:55.827Z,101351.13
2017-10-11T11:03:58.278Z,101355.19
2017-10-11T11:06:00.717Z,101356.03
2017-10-11T11:08:03.488Z,101348.22
2017-10-11T11:10:06.090Z,101341.88
2017-10-11T11:12:08.604Z,101345.94
2017-10-11T11:14:11.092Z,101350.75
2017-10-11T11:16:13.548Z,101344.84
2017-10-11T11:18:15.988Z,101339.84
2017-10-11T11:20:18.532Z,101341.63
2017-10-11T11:22:20.987Z,101341.70
2017-10-11T11:24:23.505Z,101341.20
2017-10-11T11:26:25.985Z,101335.37
2017-10-11T11:28:28.443Z,101342.47
2017-10-11T11:30:30.938Z,101333.39
2017-10-11T11:32:33.509Z,101325.81
2017-10-11T11:34:35.961Z,101324.03
2017-10-11T11:36:38.472Z,101329.33
2017-10-11T11:38:40.932Z,101320.82
2017-10-11T11:40:43.386Z,101316.22
2017-10-11T11:42:45.862Z,101319.77
2017-10-11T11:44:48.332Z,101313.94
2017-10-11T11:46:50.797Z,101313.94
2017-10-11T11:48:53.240Z,101318.84
2017-10-11T11:50:56.089Z,101314.78
2017-10-11T11:52:58.537Z,101311.98
2017-10-11T11:55:00.989Z,101306.16
2017-10-11T11:57:03.449Z,101306.58
2017-10-11T11:59:05.889Z,101305.73
2017-10-11T12:01:08.324Z,101304.72
2017-10-11T12:03:10.796Z,101305.14
2017-10-11T12:05:13.234Z,101298.04
2017-10-11T12:07:15.672Z,101301.17
2017-10-11T12:09:18.173Z,101300.66
2017-10-11T12:11:20.904Z,101307.84
2017-10-11T12:13:23.348Z,101298.80
2017-10-11T12:15:25.870Z,101301.92
2017-10-11T12:17:28.354Z,101302.73
2017-10-11T12:19:31.231Z,101292.78
2017-10-11T12:21:33.714Z,101293.21
2017-10-11T12:23:36.180Z,101294.56
2017-10-11T12:25:38.669Z,101290.00
2017-10-11T12:27:41.217Z,101292.28
2017-10-11T12:29:43.656Z,101292.70
2017-10-11T12:31:46.097Z,101290.50
2017-10-11T12:33:48.632Z,101294.48
2017-10-11T12:35:51.104Z,101286.87
2017-10-11T12:37:53.590Z,101294.39
2017-10-11T12:39:56.050Z,101293.45
2017-10-11T12:41:58.515Z,101295.23
2017-10-11T12:44:00.959Z,101290.75
2017-10-11T12:46:03.429Z,101287.11
2017-10-11T12:48:05.945Z,101291.17
2017-10-11T12:50:08.397Z,101285.64
2017-10-11T12:52:10.961Z,101279.92
2017-10-11T12:54:13.404Z,101279.51
2017-10-11T12:56:15.880Z,101279.51
2017-10-11T12:58:18.356Z,101283.56
2017-10-11T13:00:20.863Z,101289.06
2017-10-11T13:02:23.313Z,101275.95
2017-10-11T13:04:25.772Z,101279.68
2017-10-11T13:06:28.217Z,101276.55
2017-10-11T13:08:30.671Z,101272.67
2017-10-11T13:10:33.192Z,101267.44
2017-10-11T13:12:35.833Z,101270.85
2017-10-11T13:14:38.272Z,101262.06
2017-10-11T13:16:40.801Z,101265.41
2017-10-11T13:18:43.248Z,101259.74
2017-10-11T13:20:45.756Z,101267.02
2017-10-11T13:22:48.258Z,101266.30
2017-10-11T13:24:50.696Z,101259.62
2017-10-11T13:26:53.142Z,101259.19
2017-10-11T13:28:55.604Z,101256.06
2017-10-11T13:30:58.051Z,101253.05
2017-10-11T13:33:00.504Z,101250.95
2017-10-11T13:35:03.008Z,101245.54
2017-10-11T13:37:05.510Z,101239.28
2017-10-11T13:39:07.961Z,101241.56
2017-10-11T13:41:10.458Z,101241.66
2017-10-11T13:43:12.904Z,101237.72
2017-10-11T13:45:15.495Z,101238.31
2017-10-11T13:47:18.181Z,101232.98
2017-10-11T13:49:20.624Z,101232.69
2017-10-11T13:51:23.120Z,101235.48
2017-10-11T13:53:25.685Z,101234.64
2017-10-11T13:55:28.148Z,101230.66
2017-10-11T13:57:30.625Z,101239.29
2017-10-11T13:59:33.093Z,101231.30
2017-10-11T14:01:35.540Z,101232.23
2017-10-11T14:03:37.992Z,101226.98
2017-10-11T14:05:40.502Z,101215.75
2017-10-11T14:07:42.936Z,101222.59
2017-10-11T14:09:45.505Z,101217.19
2017-10-11T14:11:48.899Z,101218.16
2017-10-11T14:13:51.473Z,101214.60
2017-10-11T14:15:53.972Z,101209.62
2017-10-11T14:17:56.451Z,101204.80
2017-10-11T14:19:58.893Z,101208.02
2017-10-11T14:22:01.349Z,101200.74
2017-10-11T14:24:04.738Z,101199.22
2017-10-11T14:26:07.176Z,101200.88
2017-10-11T14:28:09.635Z,101199.86
2017-10-11T14:30:13.178Z,101197.78
2017-10-11T14:32:15.649Z,101197.78
2017-10-11T14:34:18.092Z,101192.80
2017-10-11T14:36:20.563Z,101193.55
2017-10-11T14:38:23.313Z,101189.83
2017-10-11T14:40:25.997Z,101185.66
2017-10-11T14:42:28.485Z,101188.27
2017-10-11T14:44:30.992Z,101187.25
2017-10-11T14:46:33.429Z,101183.11
2017-10-11T14:48:35.967Z,101180.20
2017-10-11T14:50:38.408Z,101178.84
2017-10-11T14:52:40.909Z,101184.16
2017-10-11T14:54:43.441Z,101174.91
2017-10-11T14:56:45.948Z,101182.09
2017-10-11T14:58:48.389Z,101172.95
2017-10-11T15:00:50.862Z,101181.50
2017-10-11T15:02:53.360Z,101183.27
2017-10-11T15:04:55.813Z,101180.36
2017-10-11T15:06:58.294Z,101184.92
2017-10-11T15:09:00.763Z,101176.72
2017-10-11T15:11:03.206Z,101177.98
2017-10-11T15:13:05.696Z,101173.92
2017-10-11T15:15:08.283Z,101168.00
2017-10-11T15:17:10.813Z,101171.55
2017-10-11T15:19:14.259Z,101168.84
2017-10-11T15:21:16.719Z,101169.99
2017-10-11T15:23:19.160Z,101179.55
2017-10-11T15:25:21.626Z,101174.52
2017-10-11T15:27:24.084Z,101171.50
2017-10-11T15:29:26.528Z,101169.94
2017-10-11T15:31:29.008Z,101172.86
2017-10-11T15:33:31.487Z,101169.81
2017-10-11T15:35:33.953Z,101171.77
2017-10-11T15:37:36.418Z,101169.53
2017-10-11T15:39:38.861Z,101166.70
2017-10-11T15:41:41.301Z,101163.83
2017-10-11T15:43:43.761Z,101159.86
2017-10-11T15:45:46.216Z,101162.39
2017-10-11T15:47:48.673Z,101163.36
2017-10-11T15:49:51.191Z,101165.59
2017-10-11T15:51:53.624Z,101157.95
2017-10-11T15:53:56.061Z,101160.58
2017-10-11T15:55:58.525Z,101156.14
2017-10-11T15:58:01.040Z,101150.89
2017-10-11T16:00:03.551Z,101154.98
2017-10-11T16:02:06.030Z,101152.41
2017-10-11T16:04:08.524Z,101154.31
2017-10-11T16:06:11.055Z,101157.56
2017-10-11T16:08:13.536Z,101150.92
2017-10-11T16:10:15.985Z,101153.88
2017-10-11T16:12:18.469Z,101155.35
2017-10-11T16:14:20.943Z,101155.69
2017-10-11T16:16:23.478Z,101151.13
2017-10-11T16:18:25.988Z,101146.94
2017-10-11T16:20:28.560Z,101154.97
2017-10-11T16:22:31.028Z,101151.75
2017-10-11T16:24:33.474Z,101142.63
2017-10-11T16:26:36.016Z,101147.61
2017-10-11T16:28:38.588Z,101138.65
2017-10-11T16:30:41.104Z,101131.89
2017-10-11T16:32:43.578Z,101137.30
2017-10-11T16:34:46.124Z,101136.45
2017-10-11T16:36:48.572Z,101137.81
2017-10-11T16:38:51.098Z,101138.31
2017-10-11T16:40:54.527Z,101131.13
2017-10-11T16:42:57.039Z,101127.20
2017-10-11T16:44:59.544Z,101123.65
2017-10-11T16:47:01.985Z,101129.06
2017-10-11T16:49:04.440Z,101129.06
2017-10-11T16:51:07.922Z,101131.34
2017-10-11T16:53:10.386Z,101133.72
2017-10-11T16:55:12.938Z,101125.17
2017-10-11T16:57:15.433Z,101129.33
2017-10-11T16:59:17.877Z,101132.03
2017-10-11T17:01:20.326Z,101131.73
2017-10-11T17:03:22.794Z,101129.45
2017-10-11T17:05:25.231Z,101136.72
2017-10-11T17:07:27.699Z,101126.41
2017-10-11T17:09:30.165Z,101130.46
2017-10-11T17:11:32.730Z,101135.12
2017-10-11T17:13:35.173Z,101128.36
2017-10-11T17:15:37.667Z,101128.78
2017-10-11T17:17:40.320Z,101129.08
2017-10-11T17:19:42.941Z,101132.53
2017-10-11T17:21:45.410Z,101134.99
2017-10-11T17:23:47.847Z,101137.27
2017-10-11T17:25:50.374Z,101135.92
2017-10-11T17:27:52.842Z,101132.80
2017-10-11T17:29:55.281Z,101135.50
2017-10-11T17:31:57.727Z,101140.48
2017-10-11T17:34:00.248Z,101138.72
2017-10-11T17:36:02.712Z,101133.84
2017-10-11T17:38:05.153Z,101132.80
2017-10-11T17:40:07.644Z,101126.67
2017-10-11T17:42:10.190Z,101130.72
2017-10-11T17:44:12.621Z,101143.41
2017-10-11T17:46:15.073Z,101139.77
2017-10-11T17:48:17.512Z,101143.83
2017-10-11T17:50:20.014Z,101154.55
2017-10-11T17:52:22.480Z,101150.67
2017-10-11T17:54:24.958Z,101146.62
2017-10-11T17:56:27.420Z,101142.05
2017-10-11T17:58:29.886Z,101144.75
2017-10-11T18:00:32.324Z,101140.70
2017-10-11T18:02:34.760Z,101139.34
2017-10-11T18:04:37.301Z,101145.69
2017-10-11T18:06:39.770Z,101145.27
2017-10-11T18:08:42.225Z,101148.39
2017-10-11T18:10:44.701Z,101151.52
2017-10-11T18:12:47.185Z,101157.52
2017-10-11T18:14:49.635Z,101159.80
2017-10-11T18:16:52.208Z,101156.25
2017-10-11T18:18:54.792Z,101162.20
2017-10-11T18:20:57.263Z,101155.03
2017-10-11T18:22:59.728Z,101150.12
2017-10-11T18:25:02.174Z,101152.41
2017-10-11T18:27:04.633Z,101155.53
2017-10-11T18:29:07.102Z,101150.55
2017-10-11T18:31:09.553Z,101150.64
2017-10-11T18:33:12.081Z,101147.93
2017-10-11T18:35:14.561Z,101144.80
2017-10-11T18:37:17.006Z,101151.05
2017-10-11T18:39:19.462Z,101153.84
2017-10-11T18:41:21.972Z,101153.84
2017-10-11T18:43:24.700Z,101154.27
2017-10-11T18:45:27.479Z,101156.47
2017-10-11T18:47:31.076Z,101164.24
2017-10-11T18:49:34.841Z,101160.61
2017-10-11T18:51:37.404Z,101159.77
2017-10-11T18:53:39.882Z,101164.66
2017-10-11T18:55:42.330Z,101170.58
2017-10-11T18:57:44.785Z,101167.03
2017-10-11T18:59:47.885Z,101166.52
2017-10-11T19:01:50.368Z,101168.81
2017-10-11T19:03:52.868Z,101167.03
2017-10-11T19:05:55.611Z,101166.52
2017-10-11T19:07:58.072Z,101176.83
2017-10-11T19:10:00.553Z,101174.64
2017-10-11T19:12:03.122Z,101180.05
2017-10-11T19:14:05.574Z,101175.91
2017-10-11T19:16:08.084Z,101175.98
2017-10-11T19:18:10.572Z,101178.19
2017-10-11T19:20:13.114Z,101174.00
2017-10-11T19:22:15.563Z,101171.88
2017-10-11T19:24:18.061Z,101169.05
2017-10-11T19:26:20.525Z,101170.96
2017-10-11T19:28:22.969Z,101172.36
2017-10-11T19:30:25.563Z,101172.53
2017-10-11T19:32:28.050Z,101168.14
2017-10-11T19:34:30.506Z,101173.48
2017-10-11T19:36:32.980Z,101165.75
2017-10-11T19:38:35.535Z,101166.84
2017-10-11T19:40:37.977Z,101159.31
2017-10-11T19:42:40.448Z,101167.56
2017-10-11T19:44:42.944Z,101165.20
2017-10-11T19:46:45.380Z,101164.16
2017-10-11T19:48:47.860Z,101162.46
2017-10-11T19:50:50.305Z,101154.30
2017-10-11T19:52:52.743Z,101156.45
2017-10-11T19:54:55.215Z,101158.70
2017-10-11T19:56:57.656Z,101159.86
2017-10-11T19:59:00.111Z,101160.79
2017-10-11T20:01:02.597Z,101168.61
2017-10-11T20:03:05.061Z,101162.48
2017-10-11T20:05:07.503Z,101161.22
2017-10-11T20:07:10.081Z,101159.64
2017-10-11T20:09:12.543Z,101157.92
2017-10-11T20:11:14.996Z,101152.32
2017-10-11T20:13:17.459Z,101159.75
2017-10-11T20:15:19.911Z,101160.42
2017-10-11T20:17:22.381Z,101153.16
2017-10-11T20:19:24.934Z,101160.66
2017-10-11T20:21:27.962Z,101168.10
2017-10-11T20:23:30.412Z,101167.36
2017-10-11T20:25:32.884Z,101161.81
2017-10-11T20:27:35.320Z,101169.31
2017-10-11T20:29:38.571Z,101159.18
2017-10-11T20:31:41.113Z,101165.11
2017-10-11T20:33:43.564Z,101154.52
2017-10-11T20:35:46.009Z,101161.96
2017-10-11T20:37:48.525Z,101161.88
2017-10-11T20:39:50.961Z,101163.09
2017-10-11T20:41:53.409Z,101158.92
2017-10-11T20:43:55.869Z,101162.52
2017-10-11T20:45:58.335Z,101160.38
2017-10-11T20:48:00.775Z,101158.15
2017-10-11T20:50:03.239Z,101153.73
2017-10-11T20:52:05.692Z,101151.50
2017-10-11T20:54:08.324Z,101148.85
2017-10-11T20:56:10.794Z,101151.19
2017-10-11T20:58:13.264Z,101154.52
2017-10-11T21:00:15.700Z,101151.95
2017-10-11T21:02:18.160Z,101152.63
2017-10-11T21:04:20.596Z,101152.43
2017-10-11T21:06:23.028Z,101153.52
2017-10-11T21:08:25.492Z,101152.81
2017-10-11T21:10:27.935Z,101155.73
2017-10-11T21:12:30.369Z,101150.16
2017-10-11T21:14:32.851Z,101149.37
2017-10-11T21:16:35.297Z,101148.27
2017-10-11T21:18:37.744Z,101153.47
2017-10-11T21:20:40.234Z,101149.33
2017-10-11T21:22:42.948Z,101150.89
2017-10-11T21:24:45.380Z,101155.20
2017-10-11T21:26:47.840Z,101149.28
2017-10-11T21:28:50.271Z,101147.31
2017-10-11T21:30:52.709Z,101144.94
2017-10-11T21:32:55.188Z,101140.30
2017-10-11T21:34:57.626Z,101138.83
2017-10-11T21:37:00.057Z,101143.13
2017-10-11T21:39:02.606Z,101138.66
2017-10-11T21:41:05.084Z,101136.17
2017-10-11T21:43:07.547Z,101145.20
2017-10-11T21:45:10.016Z,101136.08
2017-10-11T21:47:12.489Z,101137.34
2017-10-11T21:49:14.933Z,101133.30
2017-10-11T21:51:17.514Z,101135.91
2017-10-11T21:53:20.000Z,101136.72
2017-10-11T21:55:22.465Z,101133.94
2017-10-11T21:57:24.916Z,101128.53
2017-10-11T21:59:27.361Z,101124.81
2017-10-11T22:01:29.876Z,101122.53
2017-10-11T22:03:32.371Z,101127.00
2017-10-11T22:05:34.821Z,101121.09
2017-10-11T22:07:37.250Z,101117.46
2017-10-11T22:09:39.713Z,101109.73
2017-10-11T22:11:42.253Z,101118.27
2017-10-11T22:13:44.696Z,101111.94
2017-10-11T22:15:47.162Z,101113.70
2017-10-11T22:17:49.639Z,101109.15
2017-10-11T22:19:52.192Z,101109.15
2017-10-11T22:21:54.689Z,101099.63
2017-10-11T22:23:57.261Z,101091.95
2017-10-11T22:25:59.749Z,101094.65
2017-10-11T22:28:02.207Z,101090.59
2017-10-11T22:30:04.642Z,101096.84
2017-10-11T22:32:07.085Z,101090.51
2017-10-11T22:34:09.544Z,101091.32
2017-10-11T22:36:12.086Z,101098.92
2017-10-11T22:38:14.517Z,101097.98
2017-10-11T22:40:16.982Z,101107.87
2017-10-11T22:42:19.489Z,101097.05
2017-10-11T22:44:21.922Z,101097.39
2017-10-11T22:46:24.380Z,101090.72
2017-10-11T22:48:26.824Z,101093.00
2017-10-11T22:50:29.365Z,101088.44
2017-10-11T22:52:31.825Z,101083.03
2017-10-11T22:54:34.265Z,101093.84
2017-10-11T22:56:36.711Z,101087.09
2017-10-11T22:58:39.176Z,101083.88
2017-10-11T23:00:41.604Z,101074.42
2017-10-11T23:02:44.052Z,101078.05
2017-10-11T23:04:46.507Z,101069.95
2017-10-11T23:06:49.021Z,101066.73
2017-10-11T23:08:51.469Z,101065.38
2017-10-11T23:10:53.968Z,101068.50
2017-10-11T23:12:56.409Z,101066.73
2017-10-11T23:14:58.845Z,101072.14
2017-10-11T23:17:01.314Z,101065.38